Sant Celoni, Spain
Current Conditions -  °F | °C
As of 5:00 PM on Wednesday 17 Dec 2014 (Local Time) from LELL Reporting Station
Few Clouds Few Clouds  
Wind Chill: 54°   Ceiling: Unl
Heat Index: 54°   Visibility: 6mi
Dew Point: 45°   Wind: 10mph
Humidity: 72%   Direction: 250°WSW
Pressure: 30.09"   Gusts: NA
Location:  41.68°N, 2.48°E
Report Text: LELL 171600Z 25009KT 9999 FEW070 12/07 Q1019
Loading
Personal Weather Stations






























Interactive Weather Map New forecast layout! Learn more

10-Day Weather Forecast

Advertisements
Track Severe Weather on mobile